createdAt,value
2022-11-24T00:01:53.802Z,2.89
2022-11-24T00:04:20.316Z,2.93
2022-11-24T00:06:46.892Z,2.90
2022-11-24T00:09:13.434Z,2.90
2022-11-24T00:11:40.072Z,2.93
2022-11-24T00:14:06.932Z,2.94
2022-11-24T00:16:35.030Z,2.91
2022-11-24T00:19:02.762Z,2.93
2022-11-24T00:21:31.378Z,2.99
2022-11-24T00:23:58.399Z,2.99
2022-11-24T00:26:32.472Z,2.94
2022-11-24T00:29:00.109Z,2.91
2022-11-24T00:31:28.388Z,2.93
2022-11-24T00:33:56.288Z,3.00
2022-11-24T00:36:25.497Z,3.01
2022-11-24T00:38:56.186Z,3.06
2022-11-24T00:41:23.747Z,3.04
2022-11-24T00:43:50.602Z,3.03
2022-11-24T00:46:17.239Z,3.12
2022-11-24T00:48:44.546Z,3.12
2022-11-24T00:51:12.195Z,3.16
2022-11-24T00:53:38.761Z,3.09
2022-11-24T00:56:06.634Z,3.11
2022-11-24T00:58:33.835Z,3.08
2022-11-24T01:01:03.638Z,3.16
2022-11-24T01:03:30.441Z,3.20
2022-11-24T01:05:56.953Z,3.22
2022-11-24T01:08:23.494Z,3.21
2022-11-24T01:10:50.001Z,3.22
2022-11-24T01:13:16.722Z,3.25
2022-11-24T01:15:43.350Z,3.15
2022-11-24T01:18:10.069Z,3.12
2022-11-24T01:20:37.662Z,3.13
2022-11-24T01:23:04.198Z,3.19
2022-11-24T01:25:30.715Z,3.21
2022-11-24T01:27:57.392Z,3.25
2022-11-24T01:30:31.515Z,3.30
2022-11-24T01:32:58.039Z,3.30
2022-11-24T01:35:24.536Z,3.28
2022-11-24T01:37:51.089Z,3.28
2022-11-24T01:40:17.684Z,3.32
2022-11-24T01:42:48.070Z,3.27
2022-11-24T01:45:33.451Z,3.29
2022-11-24T01:48:01.485Z,3.27
2022-11-24T01:50:28.141Z,3.28
2022-11-24T01:52:55.575Z,3.24
2022-11-24T01:55:23.842Z,3.22
2022-11-24T01:57:54.099Z,3.25
2022-11-24T02:00:20.650Z,3.14
2022-11-24T02:02:47.248Z,3.17
2022-11-24T02:05:13.801Z,3.14
2022-11-24T02:07:40.468Z,3.15
2022-11-24T02:10:10.502Z,3.20
2022-11-24T02:12:37.962Z,3.25
2022-11-24T02:15:04.726Z,3.27
2022-11-24T02:17:31.290Z,3.24
2022-11-24T02:19:59.113Z,3.24
2022-11-24T02:22:34.840Z,3.25
2022-11-24T02:25:01.348Z,3.27
2022-11-24T02:27:27.957Z,3.32
2022-11-24T02:29:54.483Z,3.34
2022-11-24T02:32:21.525Z,3.38
2022-11-24T02:34:48.017Z,3.35
2022-11-24T02:37:14.441Z,3.36
2022-11-24T02:39:41.022Z,3.37
2022-11-24T02:42:10.561Z,3.40
2022-11-24T02:44:39.409Z,3.38
2022-11-24T02:47:07.397Z,3.39
2022-11-24T02:49:33.915Z,3.37
2022-11-24T02:52:00.841Z,3.38
2022-11-24T02:54:27.435Z,3.37
2022-11-24T02:56:54.010Z,3.37
2022-11-24T02:59:20.481Z,3.32
2022-11-24T03:01:47.311Z,3.33
2022-11-24T03:04:13.993Z,3.37
2022-11-24T03:06:40.544Z,3.38
2022-11-24T03:09:07.221Z,3.40
2022-11-24T03:11:33.747Z,3.41
2022-11-24T03:14:00.275Z,3.35
2022-11-24T03:16:26.827Z,3.38
2022-11-24T03:18:53.563Z,3.40
2022-11-24T03:21:20.308Z,3.36
2022-11-24T03:23:47.055Z,3.45
2022-11-24T03:26:14.774Z,3.53
2022-11-24T03:28:41.619Z,3.53
2022-11-24T03:31:08.412Z,3.52
2022-11-24T03:33:35.252Z,3.51
2022-11-24T03:36:01.846Z,3.54
2022-11-24T03:38:28.352Z,3.53
2022-11-24T03:40:54.899Z,3.55
2022-11-24T03:43:21.565Z,3.59
2022-11-24T03:45:48.790Z,3.59
2022-11-24T03:48:15.980Z,3.58
2022-11-24T03:50:42.497Z,3.63
2022-11-24T03:53:09.158Z,3.60
2022-11-24T03:55:35.842Z,3.54
2022-11-24T03:58:02.798Z,3.51
2022-11-24T04:00:29.318Z,3.53
2022-11-24T04:02:55.928Z,3.57
2022-11-24T04:05:22.685Z,3.58
2022-11-24T04:07:49.210Z,3.52
2022-11-24T04:10:15.762Z,3.47
2022-11-24T04:12:45.236Z,3.47
2022-11-24T04:15:12.503Z,3.50
2022-11-24T04:17:39.110Z,3.50
2022-11-24T04:20:06.173Z,3.52
2022-11-24T04:22:32.709Z,3.46
2022-11-24T04:24:59.308Z,3.48
2022-11-24T04:27:25.843Z,3.53
2022-11-24T04:29:52.733Z,3.52
2022-11-24T04:32:19.314Z,3.49
2022-11-24T04:34:45.828Z,3.52
2022-11-24T04:37:12.365Z,3.49
2022-11-24T04:39:38.889Z,3.54
2022-11-24T04:42:06.000Z,3.53
2022-11-24T04:44:32.864Z,3.54
2022-11-24T04:47:01.080Z,3.53
2022-11-24T04:49:27.695Z,3.52
2022-11-24T04:51:54.323Z,3.50
2022-11-24T04:54:20.808Z,3.45
2022-11-24T04:56:50.294Z,3.40
2022-11-24T04:59:16.859Z,3.40
2022-11-24T05:01:44.077Z,3.46
2022-11-24T05:04:11.820Z,3.43
2022-11-24T05:06:38.615Z,3.28
2022-11-24T05:09:06.160Z,3.23
2022-11-24T05:11:32.815Z,3.24
2022-11-24T05:13:59.367Z,3.23
2022-11-24T05:16:26.078Z,3.35
2022-11-24T05:18:52.643Z,3.32
2022-11-24T05:21:19.209Z,3.36
2022-11-24T05:23:45.832Z,3.32
2022-11-24T05:26:12.381Z,3.29
2022-11-24T05:28:38.823Z,3.35
2022-11-24T05:31:05.481Z,3.25
2022-11-24T05:33:33.766Z,3.16
2022-11-24T05:36:01.502Z,3.19
2022-11-24T05:38:31.179Z,3.25
2022-11-24T05:41:01.695Z,3.29
2022-11-24T05:43:28.270Z,3.36
2022-11-24T05:45:54.808Z,3.32
2022-11-24T05:48:21.347Z,3.24
2022-11-24T05:50:52.824Z,3.33
2022-11-24T05:53:19.340Z,3.44
2022-11-24T05:55:45.882Z,3.43
2022-11-24T05:58:12.396Z,3.46
2022-11-24T06:00:38.906Z,3.58
2022-11-24T06:03:05.566Z,3.68
2022-11-24T06:05:32.162Z,3.75
2022-11-24T06:07:59.158Z,3.90
2022-11-24T06:10:25.766Z,4.01
2022-11-24T06:12:52.521Z,4.02
2022-11-24T06:15:19.038Z,4.11
2022-11-24T06:17:52.222Z,4.16
2022-11-24T06:20:18.807Z,4.15
2022-11-24T06:22:45.368Z,4.21
2022-11-24T06:25:11.817Z,4.15
2022-11-24T06:27:38.302Z,4.25
2022-11-24T06:30:05.109Z,4.28
2022-11-24T06:32:31.765Z,4.28
2022-11-24T06:34:58.288Z,4.35
2022-11-24T06:37:24.942Z,4.31
2022-11-24T06:39:51.577Z,4.22
2022-11-24T06:42:19.225Z,4.29
2022-11-24T06:44:48.325Z,4.32
2022-11-24T06:47:15.541Z,4.31
2022-11-24T06:49:43.014Z,4.35
2022-11-24T06:52:09.588Z,4.26
2022-11-24T06:54:36.422Z,4.24
2022-11-24T06:57:03.299Z,4.35
2022-11-24T06:59:29.980Z,4.34
2022-11-24T07:01:56.482Z,4.38
2022-11-24T07:04:23.059Z,4.42
2022-11-24T07:06:49.673Z,4.38
2022-11-24T07:09:16.252Z,4.40
2022-11-24T07:11:42.994Z,4.44
2022-11-24T07:14:09.885Z,4.47
2022-11-24T07:16:36.415Z,4.47
2022-11-24T07:19:03.104Z,4.53
2022-11-24T07:21:30.838Z,4.51
2022-11-24T07:23:57.853Z,4.55
2022-11-24T07:26:24.733Z,4.57
2022-11-24T07:28:51.333Z,4.57
2022-11-24T07:31:19.277Z,4.58
2022-11-24T07:33:55.057Z,4.65
2022-11-24T07:36:22.089Z,4.67
2022-11-24T07:38:48.957Z,4.69
2022-11-24T07:41:16.306Z,4.70
2022-11-24T07:43:42.838Z,4.71
2022-11-24T07:46:11.505Z,4.75
2022-11-24T07:48:38.132Z,4.83
2022-11-24T07:51:04.973Z,4.83
2022-11-24T07:53:31.831Z,4.87
2022-11-24T07:56:02.264Z,4.86
2022-11-24T07:58:32.678Z,4.91
2022-11-24T08:01:00.149Z,4.90
2022-11-24T08:03:29.666Z,4.98
2022-11-24T08:08:43.174Z,5.10
2022-11-24T08:11:13.575Z,5.07
2022-11-24T08:13:40.140Z,5.10
2022-11-24T08:16:07.997Z,5.13
2022-11-24T08:18:35.249Z,5.14
2022-11-24T08:21:02.241Z,5.18
2022-11-24T08:23:28.844Z,5.13
2022-11-24T08:25:57.181Z,5.19
2022-11-24T08:28:23.953Z,5.12
2022-11-24T08:30:50.400Z,5.13
2022-11-24T08:33:16.915Z,5.02
2022-11-24T08:35:43.395Z,4.99
2022-11-24T08:38:09.886Z,5.00
2022-11-24T08:40:36.384Z,4.96
2022-11-24T08:43:02.895Z,4.93
2022-11-24T08:45:30.753Z,4.93
2022-11-24T08:47:57.856Z,4.93
2022-11-24T08:50:25.785Z,4.97
2022-11-24T08:52:53.432Z,4.95
2022-11-24T08:55:20.223Z,4.98
2022-11-24T08:57:46.977Z,5.06
2022-11-24T09:00:13.981Z,5.04
2022-11-24T09:02:40.540Z,5.07
2022-11-24T09:05:22.467Z,5.09
2022-11-24T09:07:53.689Z,5.09
2022-11-24T09:10:20.257Z,5.02
2022-11-24T09:12:47.090Z,4.96
2022-11-24T09:15:13.927Z,5.03
2022-11-24T09:17:40.516Z,5.08
2022-11-24T09:20:07.044Z,5.12
2022-11-24T09:22:33.662Z,4.98
2022-11-24T09:25:00.105Z,4.96
2022-11-24T09:27:27.184Z,5.00
2022-11-24T09:29:54.067Z,4.96
2022-11-24T09:32:20.560Z,4.96
2022-11-24T09:34:47.097Z,4.96
2022-11-24T09:37:13.594Z,5.02
2022-11-24T09:39:40.113Z,4.97
2022-11-24T09:42:06.643Z,5.01
2022-11-24T09:44:59.698Z,5.03
2022-11-24T09:47:32.403Z,5.01
2022-11-24T09:50:00.922Z,4.93
2022-11-24T09:52:43.652Z,4.92
2022-11-24T09:55:28.768Z,4.90
2022-11-24T09:58:13.674Z,4.88
2022-11-24T10:00:41.245Z,4.87
2022-11-24T10:03:13.192Z,4.87
2022-11-24T10:05:39.857Z,4.86
2022-11-24T10:08:06.415Z,4.81
2022-11-24T10:10:40.985Z,4.79
2022-11-24T10:13:07.455Z,4.88
2022-11-24T10:15:52.647Z,4.84
2022-11-24T10:18:28.400Z,4.85
2022-11-24T10:20:58.401Z,4.83
2022-11-24T10:23:33.511Z,4.83
2022-11-24T10:26:06.117Z,4.78
2022-11-24T10:28:45.433Z,4.71
2022-11-24T10:31:18.989Z,4.78
2022-11-24T10:33:46.516Z,4.77
2022-11-24T10:36:17.428Z,4.77
2022-11-24T10:38:48.841Z,4.75
2022-11-24T10:41:20.311Z,4.77
2022-11-24T10:43:47.904Z,4.77
2022-11-24T10:46:18.515Z,4.72
2022-11-24T10:48:51.237Z,4.74
2022-11-24T10:51:39.947Z,4.68
2022-11-24T10:54:17.342Z,4.74
2022-11-24T10:56:45.033Z,4.77
2022-11-24T10:59:30.413Z,4.77
2022-11-24T11:01:57.184Z,4.79
2022-11-24T11:04:28.561Z,4.80
2022-11-24T11:07:30.807Z,4.76
2022-11-24T11:10:17.283Z,4.69
2022-11-24T11:12:45.034Z,4.72
2022-11-24T11:15:29.935Z,4.64
2022-11-24T11:18:01.145Z,4.58
2022-11-24T11:20:29.664Z,4.58
2022-11-24T11:22:56.635Z,4.55
2022-11-24T11:25:24.966Z,4.54
2022-11-24T11:27:51.443Z,4.52
2022-11-24T11:35:51.215Z,4.41
2022-11-24T11:38:18.030Z,4.36
2022-11-24T11:40:44.831Z,4.26
2022-11-24T11:43:39.383Z,4.22
2022-11-24T11:46:14.335Z,4.22
2022-11-24T11:48:44.895Z,4.23
2022-11-24T11:51:24.715Z,4.14
2022-11-24T11:54:16.742Z,4.07
2022-11-24T11:56:45.330Z,3.99
2022-11-24T11:59:21.103Z,3.98
2022-11-24T12:01:50.699Z,3.94
2022-11-24T12:04:35.992Z,3.99
2022-11-24T12:07:02.727Z,3.98
2022-11-24T12:09:47.296Z,4.00
2022-11-24T12:12:32.688Z,4.08
2022-11-24T12:14:59.143Z,4.07
2022-11-24T12:17:34.956Z,4.03
2022-11-24T12:20:10.821Z,3.98
2022-11-24T12:22:37.322Z,3.88
2022-11-24T12:25:22.861Z,3.83
2022-11-24T12:28:12.714Z,3.77
2022-11-24T12:31:04.579Z,3.83
2022-11-24T12:33:40.087Z,3.79
2022-11-24T12:36:09.594Z,3.73
2022-11-24T12:38:54.575Z,3.79
2022-11-24T12:41:41.779Z,3.76
2022-11-24T12:44:22.911Z,3.69
2022-11-24T12:47:00.335Z,3.66
2022-11-24T12:49:46.138Z,3.61
2022-11-24T12:52:21.728Z,3.64
2022-11-24T12:54:48.215Z,3.65
2022-11-24T12:57:14.723Z,3.61
2022-11-24T12:59:45.410Z,3.56
2022-11-24T13:02:21.428Z,3.58
2022-11-24T13:04:55.238Z,3.59
2022-11-24T13:07:28.034Z,3.54
2022-11-24T13:13:14.674Z,3.65
2022-11-24T13:18:57.075Z,3.54
2022-11-24T13:21:34.324Z,3.61
2022-11-24T13:24:05.715Z,3.67
2022-11-24T13:26:47.456Z,3.62
2022-11-24T13:29:32.837Z,3.60
2022-11-24T13:32:02.363Z,3.56
2022-11-24T13:34:41.458Z,3.52
2022-11-24T13:37:28.899Z,3.48
2022-11-24T13:40:14.377Z,3.52
2022-11-24T13:42:56.498Z,3.60
2022-11-24T13:45:50.618Z,3.59
2022-11-24T13:48:20.850Z,3.61
2022-11-24T13:50:51.096Z,3.50
2022-11-24T13:53:29.055Z,3.49
2022-11-24T13:56:13.888Z,3.53
2022-11-24T13:58:40.492Z,3.52
2022-11-24T14:01:11.555Z,3.59
2022-11-24T14:03:55.379Z,3.56
2022-11-24T14:06:39.826Z,3.66
2022-11-24T14:09:18.743Z,3.63
2022-11-24T14:11:54.657Z,3.59
2022-11-24T14:14:21.774Z,3.58
2022-11-24T14:16:48.336Z,3.53
2022-11-24T14:19:18.331Z,3.55
2022-11-24T14:21:45.268Z,3.53
2022-11-24T14:24:11.846Z,3.59
2022-11-24T14:26:39.728Z,3.60
2022-11-24T14:29:07.720Z,3.57
2022-11-24T14:31:34.379Z,3.57
2022-11-24T14:34:13.348Z,3.56
2022-11-24T14:36:39.988Z,3.57
2022-11-24T14:39:09.659Z,3.59
2022-11-24T14:41:36.222Z,3.58
2022-11-24T14:44:05.594Z,3.55
2022-11-24T14:46:33.639Z,3.59
2022-11-24T14:49:00.278Z,3.53
2022-11-24T14:51:32.388Z,3.51
2022-11-24T14:54:01.588Z,3.52
2022-11-24T14:56:38.039Z,3.51
2022-11-24T14:59:20.193Z,3.53
2022-11-24T15:01:46.806Z,3.55
2022-11-24T15:07:17.074Z,3.51
2022-11-24T15:09:59.654Z,3.54
2022-11-24T15:12:34.935Z,3.54
2022-11-24T15:15:01.526Z,3.54
2022-11-24T15:17:28.850Z,3.55
2022-11-24T15:20:15.593Z,3.51
2022-11-24T15:22:43.680Z,3.51
2022-11-24T15:25:25.125Z,3.51
2022-11-24T15:27:51.928Z,3.46
2022-11-24T15:30:18.424Z,3.49
2022-11-24T15:32:55.179Z,3.46
2022-11-24T15:35:22.852Z,3.51
2022-11-24T15:37:50.094Z,3.50
2022-11-24T15:40:16.683Z,3.56
2022-11-24T15:42:45.969Z,3.57
2022-11-24T15:45:12.437Z,3.50
2022-11-24T15:47:39.032Z,3.52
2022-11-24T15:50:05.814Z,3.51
2022-11-24T15:52:32.398Z,3.54
2022-11-24T15:54:58.952Z,3.47
2022-11-24T15:57:27.153Z,3.48
2022-11-24T15:59:53.674Z,3.46
2022-11-24T16:02:21.972Z,3.53
2022-11-24T16:04:49.218Z,3.52
2022-11-24T16:07:15.965Z,3.50
2022-11-24T16:09:42.603Z,3.40
2022-11-24T16:12:09.794Z,3.45
2022-11-24T16:14:36.989Z,3.42
2022-11-24T16:17:03.972Z,3.42
2022-11-24T16:19:30.557Z,3.50
2022-11-24T16:21:57.075Z,3.48
2022-11-24T16:24:23.648Z,3.44
2022-11-24T16:26:50.193Z,3.44
2022-11-24T16:29:16.922Z,3.43
2022-11-24T16:31:44.600Z,3.41
2022-11-24T16:34:11.137Z,3.40
2022-11-24T16:36:37.568Z,3.28
2022-11-24T16:39:04.066Z,3.27
2022-11-24T16:41:30.572Z,3.27
2022-11-24T16:43:57.079Z,3.29
2022-11-24T16:46:24.701Z,3.29
2022-11-24T16:48:52.794Z,3.25
2022-11-24T16:51:20.493Z,3.27
2022-11-24T16:53:47.080Z,3.19
2022-11-24T16:56:14.862Z,3.26
2022-11-24T16:58:41.371Z,3.28
2022-11-24T17:01:10.505Z,3.26
2022-11-24T17:03:37.559Z,3.25
2022-11-24T17:06:05.317Z,3.29
2022-11-24T17:08:32.631Z,3.28
2022-11-24T17:11:04.678Z,3.35
2022-11-24T17:13:31.929Z,3.40
2022-11-24T17:15:58.476Z,3.33
2022-11-24T17:18:25.630Z,3.32
2022-11-24T17:20:54.425Z,3.31
2022-11-24T17:23:20.987Z,3.31
2022-11-24T17:25:48.774Z,3.36
2022-11-24T17:28:15.258Z,3.38
2022-11-24T17:30:41.874Z,3.42
2022-11-24T17:33:08.453Z,3.43
2022-11-24T17:35:35.165Z,3.41
2022-11-24T17:38:01.841Z,3.43
2022-11-24T17:40:29.590Z,3.48
2022-11-24T17:43:00.353Z,3.49
2022-11-24T17:45:27.352Z,3.50
2022-11-24T17:47:54.110Z,3.48
2022-11-24T17:50:25.401Z,3.46
2022-11-24T17:52:52.559Z,3.41
2022-11-24T17:55:19.047Z,3.45
2022-11-24T17:57:45.512Z,3.45
2022-11-24T18:00:12.316Z,3.36
2022-11-24T18:02:39.018Z,3.33
2022-11-24T18:05:05.643Z,3.41
2022-11-24T18:07:32.164Z,3.31
2022-11-24T18:09:58.720Z,3.21
2022-11-24T18:12:25.499Z,3.22
2022-11-24T18:14:52.274Z,3.31
2022-11-24T18:17:18.824Z,3.33
2022-11-24T18:19:45.756Z,3.33
2022-11-24T18:22:12.193Z,3.35
2022-11-24T18:24:38.899Z,3.24
2022-11-24T18:27:05.686Z,3.30
2022-11-24T18:29:32.202Z,3.16
2022-11-24T18:31:58.736Z,3.22
2022-11-24T18:34:25.314Z,3.25
2022-11-24T18:36:52.618Z,3.29
2022-11-24T18:39:19.456Z,3.21
2022-11-24T18:41:46.265Z,3.27
2022-11-24T18:44:12.853Z,3.21
2022-11-24T18:46:39.507Z,3.27
2022-11-24T18:49:07.288Z,3.26
2022-11-24T18:51:34.047Z,3.30
2022-11-24T18:54:02.285Z,3.35
2022-11-24T18:56:29.256Z,3.34
2022-11-24T18:58:56.195Z,3.33
2022-11-24T19:01:27.673Z,3.31
2022-11-24T19:03:55.592Z,3.25
2022-11-24T19:06:32.368Z,3.13
2022-11-24T19:09:25.824Z,3.11
2022-11-24T19:11:52.416Z,3.10
2022-11-24T19:14:19.292Z,3.11
2022-11-24T19:16:47.905Z,3.20
2022-11-24T19:19:14.817Z,3.15
2022-11-24T19:21:41.384Z,3.21
2022-11-24T19:24:10.225Z,3.21
2022-11-24T19:26:37.055Z,3.15
2022-11-24T19:29:04.441Z,3.17
2022-11-24T19:31:31.151Z,3.13
2022-11-24T19:33:59.969Z,3.19
2022-11-24T19:36:26.488Z,3.23
2022-11-24T19:38:54.352Z,3.18
2022-11-24T19:41:22.009Z,3.18
2022-11-24T19:43:48.984Z,3.18
2022-11-24T19:46:19.243Z,3.16
2022-11-24T19:48:49.241Z,3.19
2022-11-24T19:51:20.467Z,3.22
2022-11-24T19:53:47.590Z,3.23
2022-11-24T19:56:15.481Z,3.19
2022-11-24T19:58:42.270Z,3.20
2022-11-24T20:01:29.213Z,3.19
2022-11-24T20:03:55.738Z,3.25
2022-11-24T20:06:22.225Z,3.25
2022-11-24T20:08:48.813Z,3.22
2022-11-24T20:11:16.481Z,3.19
2022-11-24T20:13:43.937Z,3.22
2022-11-24T20:16:11.806Z,3.20
2022-11-24T20:18:42.278Z,3.25
2022-11-24T20:21:10.032Z,3.30
2022-11-24T20:23:36.803Z,3.26
2022-11-24T20:26:12.677Z,3.32
2022-11-24T20:28:39.745Z,3.40
2022-11-24T20:31:07.820Z,3.33
2022-11-24T20:33:36.819Z,3.27
2022-11-24T20:36:13.768Z,3.26
2022-11-24T20:38:43.584Z,3.32
2022-11-24T20:41:14.221Z,3.30
2022-11-24T20:43:41.305Z,3.36
2022-11-24T20:46:09.298Z,3.40
2022-11-24T20:48:36.529Z,3.37
2022-11-24T20:51:07.271Z,3.36
2022-11-24T20:53:34.345Z,3.37
2022-11-24T20:56:21.145Z,3.38
2022-11-24T20:58:48.294Z,3.30
2022-11-24T21:01:16.031Z,3.33
2022-11-24T21:03:43.655Z,3.31
2022-11-24T21:06:10.741Z,3.41
2022-11-24T21:08:38.305Z,3.41
2022-11-24T21:11:05.555Z,3.36
2022-11-24T21:13:33.056Z,3.32
2022-11-24T21:15:59.663Z,3.32
2022-11-24T21:18:26.390Z,3.38
2022-11-24T21:20:53.002Z,3.38
2022-11-24T21:23:20.678Z,3.36
2022-11-24T21:25:47.107Z,3.30
2022-11-24T21:28:13.693Z,3.35
2022-11-24T21:30:43.263Z,3.38
2022-11-24T21:33:09.820Z,3.35
2022-11-24T21:35:36.825Z,3.37
2022-11-24T21:38:03.732Z,3.38
2022-11-24T21:40:30.749Z,3.37
2022-11-24T21:42:58.542Z,3.41
2022-11-24T21:45:25.501Z,3.37
2022-11-24T21:47:52.061Z,3.33
2022-11-24T21:50:18.567Z,3.38
2022-11-24T21:52:45.070Z,3.36
2022-11-24T21:55:11.505Z,3.31
2022-11-24T21:57:38.698Z,3.35
2022-11-24T22:00:05.702Z,3.37
2022-11-24T22:02:32.271Z,3.40
2022-11-24T22:04:58.805Z,3.35
2022-11-24T22:07:25.354Z,3.37
2022-11-24T22:09:51.849Z,3.40
2022-11-24T22:12:18.398Z,3.45
2022-11-24T22:14:45.943Z,3.47
2022-11-24T22:17:14.665Z,3.42
2022-11-24T22:19:41.163Z,3.43
2022-11-24T22:22:07.638Z,3.39
2022-11-24T22:24:34.091Z,3.37
2022-11-24T22:27:02.890Z,3.37
2022-11-24T22:29:29.452Z,3.38
2022-11-24T22:31:55.969Z,3.38
2022-11-24T22:34:22.492Z,3.33
2022-11-24T22:36:49.040Z,3.37
2022-11-24T22:39:15.499Z,3.38
2022-11-24T22:41:41.988Z,3.37
2022-11-24T22:44:08.557Z,3.38
2022-11-24T22:46:35.031Z,3.37
2022-11-24T22:49:01.957Z,3.37
2022-11-24T22:51:29.843Z,3.35
2022-11-24T22:53:57.515Z,3.35
2022-11-24T22:56:24.819Z,3.41
2022-11-24T22:58:51.456Z,3.42
2022-11-24T23:01:19.067Z,3.41
2022-11-24T23:03:45.720Z,3.43
2022-11-24T23:06:13.722Z,3.38
2022-11-24T23:08:40.775Z,3.42
2022-11-24T23:11:17.756Z,3.32
2022-11-24T23:13:44.513Z,3.31
2022-11-24T23:16:12.626Z,3.37
2022-11-24T23:18:39.423Z,3.36
2022-11-24T23:21:11.216Z,3.35
2022-11-24T23:23:37.711Z,3.35
2022-11-24T23:26:05.559Z,3.36
2022-11-24T23:28:32.333Z,3.32
2022-11-24T23:31:06.128Z,3.35
2022-11-24T23:33:32.663Z,3.36
2022-11-24T23:36:03.244Z,3.35
2022-11-24T23:38:34.525Z,3.34
2022-11-24T23:41:04.556Z,3.37
2022-11-24T23:43:31.816Z,3.35
2022-11-24T23:46:24.450Z,3.31
2022-11-24T23:48:51.901Z,3.27
2022-11-24T23:51:22.812Z,3.24
2022-11-24T23:53:49.992Z,3.31
2022-11-24T23:56:23.823Z,3.30
2022-11-24T23:58:50.452Z,3.34
